Buoy 52594

sailwx.info

Track history (hours):
 
Tides and Currents Weather Stations Pressure Air Temp Water Temp Dewpoint Dewpoint Depression Visibility Wind Speed Wind Dir Waves Ship Positions

Drifting buoy 52594

Last reported at 2018-Jun-20 13:00 UTC. Time now 2018-Jun-20 15:20 UTC.
Position N 32°17' W 139°35'.

Water temperature 19.2 ° C

Date/timePositionNaut miles runAvg speedWind from/ knotsBaromVisibWave heightAir tempDewpointWater temp
2018-Jun-20 13:00N 32°17' W 139°35'5 4.8 19.2
2018-Jun-20 12:00N 32°22' W 139°34'5 1.1 19.2
2018-Jun-20 07:00N 32°16' W 139°35'0 0.0 19.2
2018-Jun-20 06:00N 32°16' W 139°35'1 1.3 19.2
2018-Jun-20 05:00N 32°15' W 139°34'1 0.5 19.2
2018-Jun-20 04:00N 32°15' W 139°35'2 2.4 19.3
2018-Jun-20 03:00N 32°13' W 139°35'0 0.0 19.3
2018-Jun-20 02:00N 32°13' W 139°35'0 0.0 19.3
2018-Jun-20 01:00N 32°13' W 139°35'9 4.5 19.2
2018-Jun-19 23:00N 32°04' W 139°34'0 0.0 19.1
2018-Jun-19 13:00N 32°04' W 139°34'6 5.8 18.4
2018-Jun-19 12:00N 31°58' W 139°31'3 3.1 18.3
2018-Jun-19 11:00N 32°01' W 139°34'3 0.6 18.4
2018-Jun-19 06:00N 31°58' W 139°31'1 1.3 18.8
2018-Jun-19 05:00N 31°57' W 139°31'0 0.0 19.0
2018-Jun-19 04:00N 31°57' W 139°31'2 0.9 19.1
2018-Jun-19 02:00N 31°55' W 139°31'1 1.0 19.1
2018-Jun-19 01:00N 31°55' W 139°29'   19.2
2018-Jun-15 03:00N 31°49' W 137°58'1 0.5 18.4
2018-Jun-15 02:00N 31°49' W 137°58'2 1.6 18.4
2018-Jun-15 01:00N 31°50' W 137°56'0 0.0 18.4
2018-Jun-15 00:00N 31°50' W 137°56'0 0.0 18.4
2018-Jun-14 23:00N 31°50' W 137°56'9 3.1 18.4
2018-Jun-14 20:00N 31°57' W 137°49'2 0.4 18.4
2018-Jun-14 15:00N 31°59' W 137°49'1 0.8 18.4
2018-Jun-14 14:00N 31°59' W 137°48'5 5.4 18.4
2018-Jun-14 13:00N 32°04' W 137°45'5 4.7 18.4
2018-Jun-14 12:00N 32°00' W 137°47'5 0.9 18.4
2018-Jun-14 07:00N 32°04' W 137°45'1 0.8 18.4
2018-Jun-14 06:00N 32°05' W 137°44'1 0.8 18.4
2018-Jun-14 05:00N 32°05' W 137°44'0 0.0 18.5
2018-Jun-14 04:00N 32°05' W 137°44'1 0.8 18.5
2018-Jun-14 03:00N 32°06' W 137°43'1 0.8 18.5
2018-Jun-14 02:00N 32°07' W 137°43'8 4.0 18.6
2018-Jun-14 00:00N 32°13' W 137°37'1 0.1 18.6
2018-Jun-13 19:00N 32°14' W 137°37'1 1.3 18.2
2018-Jun-13 18:00N 32°15' W 137°37'1 1.3 18.2
2018-Jun-13 17:00N 32°16' W 137°37'1 1.3 18.2
2018-Jun-13 16:00N 32°17' W 137°37'2 1.6 18.2
2018-Jun-13 15:00N 32°19' W 137°35'1 0.8 18.2
2018-Jun-13 14:00N 32°19' W 137°36'2 2.1 18.2
2018-Jun-13 13:00N 32°21' W 137°35'0 0.0 18.2
2018-Jun-13 12:00N 32°21' W 137°35'0 0.0 18.2
2018-Jun-13 07:00N 32°21' W 137°35'2 1.9 18.2
2018-Jun-13 06:00N 32°22' W 137°33'1 0.8 18.2
2018-Jun-13 05:00N 32°23' W 137°32'1 0.8 18.2
2018-Jun-13 04:00N 32°23' W 137°32'1 0.8 18.4
2018-Jun-13 03:00N 32°24' W 137°31'0 0.0 18.4
2018-Jun-13 02:00N 32°24' W 137°31'2 1.2 18.4
2018-Jun-13 00:00N 32°26' W 137°29'4 3.9 18.4
2018-Jun-12 23:00N 32°29' W 137°26'0 0.0 18.4
2018-Jun-12 20:00N 32°29' W 137°26'2 1.9 18.4
2018-Jun-12 19:00N 32°31' W 137°26'1 0.8 18.3
2018-Jun-12 18:00N 32°31' W 137°25'1 1.2 18.3
2018-Jun-12 17:00N 32°32' W 137°25'0 0.0 18.2
2018-Jun-12 16:00N 32°32' W 137°25'1 0.5 18.2
2018-Jun-12 15:00N 32°32' W 137°26'1 1.3 18.2
2018-Jun-12 14:00N 32°34' W 137°25'3 2.8 18.2
2018-Jun-12 13:00N 32°36' W 137°23'0 0.0 18.2
2018-Jun-12 12:00N 32°36' W 137°23'1 0.2 18.3
2018-Jun-12 07:00N 32°36' W 137°22'0 0.0 18.4
2018-Jun-12 06:00N 32°36' W 137°22'0 0.0 18.4
2018-Jun-12 05:00N 32°36' W 137°22'1 1.0 18.4
2018-Jun-12 04:00N 32°36' W 137°21'2 0.8 18.5
2018-Jun-12 02:00N 32°37' W 137°20'1 0.5 18.4
2018-Jun-12 01:00N 32°37' W 137°19'2 1.6 18.6
2018-Jun-12 00:00N 32°38' W 137°18'1 0.6 18.5
2018-Jun-11 23:00N 32°38' W 137°18'0 0.0 18.4
2018-Jun-11 22:00N 32°38' W 137°18'3 1.6 18.4
2018-Jun-11 20:00N 32°40' W 137°16'1 0.6 18.4
2018-Jun-11 19:00N 32°41' W 137°16'1 1.0 18.3
2018-Jun-11 18:00N 32°41' W 137°14'1 0.6 18.2
2018-Jun-11 17:00N 32°41' W 137°14'1 0.5 18.2
2018-Jun-11 16:00N 32°41' W 137°15'1 0.8 18.3
2018-Jun-11 15:00N 32°42' W 137°14'1 0.6 18.3
2018-Jun-11 14:00N 32°43' W 137°14'2 2.0 18.3
2018-Jun-11 13:00N 32°43' W 137°12'0 0.0 18.3
2018-Jun-11 12:00N 32°43' W 137°12'0 0.0 18.4
2018-Jun-11 07:00N 32°43' W 137°12'1 1.0 18.3
2018-Jun-11 06:00N 32°43' W 137°11'1 0.8 18.4
2018-Jun-11 05:00N 32°43' W 137°10'1 1.0 18.4
2018-Jun-11 04:00N 32°43' W 137°09'1 0.5 18.5
2018-Jun-11 03:00N 32°43' W 137°08'1 0.5 18.6
2018-Jun-11 02:00N 32°43' W 137°08'3 2.7 18.6
2018-Jun-11 01:00N 32°45' W 137°05'0 0.0 18.6
2018-Jun-11 00:00N 32°45' W 137°05'0 0.0 18.6
2018-Jun-10 23:00N 32°45' W 137°05'3 1.0 18.6
2018-Jun-10 20:00N 32°47' W 137°02'1 1.3 18.4
2018-Jun-10 19:00N 32°48' W 137°02'2 0.6 18.1
2018-Jun-10 15:00N 32°50' W 137°02'0 0.0 17.8
2018-Jun-10 14:00N 32°50' W 137°02'1 1.2 17.8
2018-Jun-10 13:00N 32°52' W 137°02'   17.8
Track history (hours):
 
Tides and Currents Weather Stations Pressure Air Temp Water Temp Dewpoint Dewpoint Depression Visibility Wind Speed Wind Dir Waves Ship Positions

Drifting buoy 52594

Last reported at 2018-Jun-20 13:00 UTC. Time now 2018-Jun-20 15:20 UTC.
Position N 32°17' W 139°35'.

Water temperature 19.2 ° C

Date/timePositionNaut miles runAvg speedWind from/ knotsBaromVisibWave heightAir tempDewpointWater temp
2018-Jun-20 13:00N 32°17' W 139°35'5 4.8 19.2
2018-Jun-20 12:00N 32°22' W 139°34'5 1.1 19.2
2018-Jun-20 07:00N 32°16' W 139°35'0 0.0 19.2
2018-Jun-20 06:00N 32°16' W 139°35'1 1.3 19.2
2018-Jun-20 05:00N 32°15' W 139°34'1 0.5 19.2
2018-Jun-20 04:00N 32°15' W 139°35'2 2.4 19.3
2018-Jun-20 03:00N 32°13' W 139°35'0 0.0 19.3
2018-Jun-20 02:00N 32°13' W 139°35'0 0.0 19.3
2018-Jun-20 01:00N 32°13' W 139°35'9 4.5 19.2
2018-Jun-19 23:00N 32°04' W 139°34'0 0.0 19.1
2018-Jun-19 13:00N 32°04' W 139°34'6 5.8 18.4
2018-Jun-19 12:00N 31°58' W 139°31'3 3.1 18.3
2018-Jun-19 11:00N 32°01' W 139°34'3 0.6 18.4
2018-Jun-19 06:00N 31°58' W 139°31'1 1.3 18.8
2018-Jun-19 05:00N 31°57' W 139°31'0 0.0 19.0
2018-Jun-19 04:00N 31°57' W 139°31'2 0.9 19.1
2018-Jun-19 02:00N 31°55' W 139°31'1 1.0 19.1
2018-Jun-19 01:00N 31°55' W 139°29'   19.2
2018-Jun-15 03:00N 31°49' W 137°58'1 0.5 18.4
2018-Jun-15 02:00N 31°49' W 137°58'2 1.6 18.4
2018-Jun-15 01:00N 31°50' W 137°56'0 0.0 18.4
2018-Jun-15 00:00N 31°50' W 137°56'0 0.0 18.4
2018-Jun-14 23:00N 31°50' W 137°56'9 3.1 18.4
2018-Jun-14 20:00N 31°57' W 137°49'2 0.4 18.4
2018-Jun-14 15:00N 31°59' W 137°49'1 0.8 18.4
2018-Jun-14 14:00N 31°59' W 137°48'5 5.4 18.4
2018-Jun-14 13:00N 32°04' W 137°45'5 4.7 18.4
2018-Jun-14 12:00N 32°00' W 137°47'5 0.9 18.4
2018-Jun-14 07:00N 32°04' W 137°45'1 0.8 18.4
2018-Jun-14 06:00N 32°05' W 137°44'1 0.8 18.4
2018-Jun-14 05:00N 32°05' W 137°44'0 0.0 18.5
2018-Jun-14 04:00N 32°05' W 137°44'1 0.8 18.5
2018-Jun-14 03:00N 32°06' W 137°43'1 0.8 18.5
2018-Jun-14 02:00N 32°07' W 137°43'8 4.0 18.6
2018-Jun-14 00:00N 32°13' W 137°37'1 0.1 18.6
2018-Jun-13 19:00N 32°14' W 137°37'1 1.3 18.2
2018-Jun-13 18:00N 32°15' W 137°37'1 1.3 18.2
2018-Jun-13 17:00N 32°16' W 137°37'1 1.3 18.2
2018-Jun-13 16:00N 32°17' W 137°37'2 1.6 18.2
2018-Jun-13 15:00N 32°19' W 137°35'1 0.8 18.2
2018-Jun-13 14:00N 32°19' W 137°36'2 2.1 18.2
2018-Jun-13 13:00N 32°21' W 137°35'0 0.0 18.2
2018-Jun-13 12:00N 32°21' W 137°35'0 0.0 18.2
2018-Jun-13 07:00N 32°21' W 137°35'2 1.9 18.2
2018-Jun-13 06:00N 32°22' W 137°33'1 0.8 18.2
2018-Jun-13 05:00N 32°23' W 137°32'1 0.8 18.2
2018-Jun-13 04:00N 32°23' W 137°32'1 0.8 18.4
2018-Jun-13 03:00N 32°24' W 137°31'0 0.0 18.4
2018-Jun-13 02:00N 32°24' W 137°31'2 1.2 18.4
2018-Jun-13 00:00N 32°26' W 137°29'4 3.9 18.4
2018-Jun-12 23:00N 32°29' W 137°26'0 0.0 18.4
2018-Jun-12 20:00N 32°29' W 137°26'2 1.9 18.4
2018-Jun-12 19:00N 32°31' W 137°26'1 0.8 18.3
2018-Jun-12 18:00N 32°31' W 137°25'1 1.2 18.3
2018-Jun-12 17:00N 32°32' W 137°25'0 0.0 18.2
2018-Jun-12 16:00N 32°32' W 137°25'1 0.5 18.2
2018-Jun-12 15:00N 32°32' W 137°26'1 1.3 18.2
2018-Jun-12 14:00N 32°34' W 137°25'3 2.8 18.2
2018-Jun-12 13:00N 32°36' W 137°23'0 0.0 18.2
2018-Jun-12 12:00N 32°36' W 137°23'1 0.2 18.3
2018-Jun-12 07:00N 32°36' W 137°22'0 0.0 18.4
2018-Jun-12 06:00N 32°36' W 137°22'0 0.0 18.4
2018-Jun-12 05:00N 32°36' W 137°22'1 1.0 18.4
2018-Jun-12 04:00N 32°36' W 137°21'2 0.8 18.5
2018-Jun-12 02:00N 32°37' W 137°20'1 0.5 18.4
2018-Jun-12 01:00N 32°37' W 137°19'2 1.6 18.6
2018-Jun-12 00:00N 32°38' W 137°18'1 0.6 18.5
2018-Jun-11 23:00N 32°38' W 137°18'0 0.0 18.4
2018-Jun-11 22:00N 32°38' W 137°18'3 1.6 18.4
2018-Jun-11 20:00N 32°40' W 137°16'1 0.6 18.4
2018-Jun-11 19:00N 32°41' W 137°16'1 1.0 18.3
2018-Jun-11 18:00N 32°41' W 137°14'1 0.6 18.2
2018-Jun-11 17:00N 32°41' W 137°14'1 0.5 18.2
2018-Jun-11 16:00N 32°41' W 137°15'1 0.8 18.3
2018-Jun-11 15:00N 32°42' W 137°14'1 0.6 18.3
2018-Jun-11 14:00N 32°43' W 137°14'2 2.0 18.3
2018-Jun-11 13:00N 32°43' W 137°12'0 0.0 18.3
2018-Jun-11 12:00N 32°43' W 137°12'0 0.0 18.4
2018-Jun-11 07:00N 32°43' W 137°12'1 1.0 18.3
2018-Jun-11 06:00N 32°43' W 137°11'1 0.8 18.4
2018-Jun-11 05:00N 32°43' W 137°10'1 1.0 18.4
2018-Jun-11 04:00N 32°43' W 137°09'1 0.5 18.5
2018-Jun-11 03:00N 32°43' W 137°08'1 0.5 18.6
2018-Jun-11 02:00N 32°43' W 137°08'3 2.7 18.6
2018-Jun-11 01:00N 32°45' W 137°05'0 0.0 18.6
2018-Jun-11 00:00N 32°45' W 137°05'0 0.0 18.6
2018-Jun-10 23:00N 32°45' W 137°05'3 1.0 18.6
2018-Jun-10 20:00N 32°47' W 137°02'1 1.3 18.4
2018-Jun-10 19:00N 32°48' W 137°02'2 0.6 18.1
2018-Jun-10 15:00N 32°50' W 137°02'0 0.0 17.8
2018-Jun-10 14:00N 32°50' W 137°02'1 1.2 17.8
2018-Jun-10 13:00N 32°52' W 137°02'   17.8

Dump ship's entire track history